« 2017年3月 | トップページ | 2017年5月 »

2017年4月

2017/04/30

### RJNT log 201704 ###

### RJNT log 201704 ###

-- 2017/4/30 sun -----

RJTT-RJNT
ANA   /312 JA8569
ANA313/316 JA8947
ANA315/    JA74AN
ANA   /320 JA77AN
ANA319/322 JA61AN
ANA321     JA113A

RJCC-RJNT
ANA    /1181 JA74AN
ANA1182      JA77AN


RCTP-RJNT
CAL170/171 B-18663

-- 2017/4/29 sat -----

RJTT-RJNT
ANA   /312 JA8971
ANA313/316 JA75AN
ANA315/    JA69AN
ANA   /320 JA69AN
ANA319/322 JA73AN
ANA321     JA8569

RJCC-RJNT
ANA    /1181 JA69AN
ANA1182      JA69AN
 

ZYTL-RJNT
CSN613/614 B-6039

ZSPD-RJNT
CSH825/826 B-5601

RKSI-RJNT
ASV782/781 HL8281

-- 2017/4/28 fri -----

RJTT-RJNT
ANA   /312 JA8579
ANA313/316 JA8947
ANA315/    JA55AN
ANA   /320 JA55AN
ANA319/322 JA71AN
ANA321     JA8971

RJCC-RJNT
ANA    /1181 JA55AN
ANA1182      JA55AN

RCTP-RJNT
CAL170/171 B-18615

RKSI-RJNT
ASV782/781 HL8281

-- 2017/4/27 thu -----

RJTT-RJNT
ANA   /312 JA8578
ANA313/316 JA606A
ANA315/    JA83AN
ANA   /320 JA83AN
ANA319/322 JA51AN
ANA321     JA8579

RJCC-RJNT
ANA    /1181 JA83AN
ANA1182      JA83AN


RCTP-RJNT
CAL170/171 B-18655

-- 2017/4/26 wed -----

RJTT-RJNT
ANA   /312 JA8324
ANA313/316 JA604A
ANA315/    JA60AN
ANA   /320 JA60AN
ANA319/322 JA70AN
ANA321     JA8578

RJCC-RJNT
ANA    /1181 JA60AN
ANA1182      JA60AN

ZYTL-RJNT
CSN613/614 B-6041

RCTP-RJNT
CAL170/171 B-18610

RCKH-RJNT
TTW2264/2265 B-50011

RKSI-RJNT
ASV782/781 HL8280

-- 2017/4/25 tue -----

RJTT-RJNT
ANA   /312 JA8670
ANA313/316 JA609A
ANA315/    JA83AN
ANA   /320 JA83AN
ANA319/322 JA51AN
ANA321     JA8324

RJCC-RJNT
ANA    /1181 JA83AN
ANA1182      JA83AN

ZSPD-RJNT
CSH825/826 B-5260

RCTP-RJNT
CAL170/171 B-18661


RKSI-RJNT
ASV7828/7829 HL8281

-- 2017/4/24 mon -----

RJTT-RJNT
ANA   /312 JA8578
ANA313/316 JA606A
ANA315/    JA61AN
ANA   /320 JA61AN
ANA319/322 JA51AN
ANA321     JA8670

RJCC-RJNT
ANA    /1181 JA61AN
ANA1182      JA61AN

RCTP-RJNT
CAL170/171 B-18660


RKSI-RJNT
ASV782/781 HL8255

-- 2017/4/23 sun -----

RJTT-RJNT
ANA   /312 JA8677
ANA313/316 JA8971
ANA315/    JA69AN
ANA   /320 JA69AN
ANA319/322 JA51AN
ANA321     JA8578

RJCC-RJNT
ANA    /1181 JA69AN
ANA1182      JA69AN


RCTP-RJNT
CAL170/171 B-18661

-- 2017/4/22 sat -----

RJTT-RJNT
ANA   /312 JA8342
ANA313/316 JA607A
ANA315/    JA60AN
ANA   /320 JA60AN
ANA319/322 JA51AN
ANA321     JA8677

RJCC-RJNT
ANA    /1181 JA60AN
ANA1182      JA60AN
 

ZYTL-RJNT
CSN613/614 B-6039

ZSPD-RJNT
CSH825/826 B-5801


RKSI-RJNT
ASV782/781 HL8255

-- 2017/4/21 fri -----

RJTT-RJNT
ANA   /312 JA8677
ANA313/316 JA606A
ANA315/    JA56AN
ANA   /320 JA56AN
ANA319/322 JA51AN
ANA321     JA8342

RJCC-RJNT
ANA    /1181 JA56AN
ANA1182      JA56AN

RCTP-RJNT
CAL170/171 B-18665

RKSI-RJNT
ASV7828/7829 HL8255

-- 2017/4/20 thu -----

RJTT-RJNT
ANA   /312 JA8674
ANA313/316 JA8322
ANA315/    JA68AN
ANA   /320 JA68AN
ANA319/322 JA52AN
ANA321     JA8677

RJCC-RJNT
ANA    /1181 JA68AN
ANA1182      JA68AN


RCTP-RJNT
CAL170/171 B-18657

-- 2017/4/19 wed -----

RJTT-RJNT
ANA   /312 JA8304
ANA313/316 JA8313
ANA315/    JA72AN
ANA   /320 JA72AN
ANA319/322 JA51AN
ANA321     JA8674

RJCC-RJNT
ANA    /1181 JA72AN
ANA1182      JA72AN


ZYTL-RJNT
CSN613/614 B-6039

RCTP-RJNT
CAL170/171 B-18660

RKSI-RJNT
ASV782/781 HL8281

UUWW-RJNT-RJAA

M-UNIS

-- 2017/4/18 tue -----

RJTT-RJNT
ANA   /312 JA8569
ANA313/316 JA8342
ANA315/    JA71AN
ANA   /320 JA71AN
ANA319/322 JA51AN
ANA321     JA8304

RJCC-RJNT
ANA    /1181 JA71AN
ANA1182      JA71AN

ZSPD-RJNT
CSH825/826 B-5269

RCTP-RJNT
CAL170/171 B-18615

RKSI-RJNT
ASV7828/7829 HL8280

RKCH-RJNT
TTW2264/2263 B-50017

-- 2017/4/17 mon -----

RJTT-RJNT
ANA   /312 JA8342
ANA313/316 JA8578
ANA315/    JA57AN
ANA   /320 JA57AN
ANA319/322 JA8304
ANA321     JA8569

RJCC-RJNT
ANA    /1181 JA57AN
ANA1182      JA57AN

RCTP-RJNT
CAL170/171 B-18657


RKSI-RJNT
ASV782/781 HL8255

-- 2017/4/16 sun -----

RJTT-RJNT
ANA   /312 JA8579
ANA313/316 JA607A
ANA315/    JA63AN
ANA   /320 JA63AN
ANA319/322 JA51AN
ANA321     JA8342

RJCC-RJNT
ANA    /1181 JA63AN
ANA1182      JA63AN


RCTP-RJNT
CAL170/171 B-18656


RJGG-RJNT-RJDC
VJT624 9H-ILV

-- 2017/4/15 sat -----

RJTT-RJNT
ANA   /312 JA8342
ANA313/316 JA8669
ANA315/    JA68AN
ANA   /320 JA68AN
ANA319/322 JA51AN
ANA321     JA8579

RJCC-RJNT
ANA    /1181 JA68AN
ANA1182      JA68AN

ZYTL-RJNT
CSN613/614 B-2296

ZSPD-RJNT
CSH825/826 B-5269


RKSI-RJNT
ASV782/781 HL8280

-- 2017/4/14 fri -----

RJTT-RJNT
ANA   /312 JA8578
ANA313/316 JA52AN
ANA315/    JA82AN
ANA   /320 JA82AN
ANA319/322 JA51AN
ANA321     JA8342

RJCC-RJNT
ANA    /1181 JA82AN
ANA1182      JA82AN

RCTP-RJNT
CAL170/171 B-18661

ZGSZ-RJNT-RJGG
VJT624 9H-ILV


RKSI-RJNT
ASV7828/7829 HL8281

-- 2017/4/13 thu -----

RJTT-RJNT
ANA   /312 JA8674
ANA313/316 JA52AN
ANA315/    JA60AN
ANA   /320 JA60AN
ANA319/322 JA51AN
ANA321     JA8578

RJCC-RJNT
ANA    /1181 JA79AN
ANA1182      JA79AN


RCTP-RJNT
CAL170/171 B-18657

-- 2017/4/12 wed -----

RJTT-RJNT
ANA   /312 JA8670
ANA313/316 JA52AN
ANA315/    JA61AN
ANA   /320 JA61AN
ANA319/322 JA51AN
ANA321     JA8674

RJCC-RJNT
ANA    /1181 JA61AN
ANA1182      JA61AN

ZYTL-RJNT
CSN613/614 B-2297

-- 2017/4/11 tue -----

RJTT-RJNT
ANA   /312 JA8568
ANA313/316 JA52AN
ANA315/    JA83AN
ANA   /320 JA83AN
ANA319/322 JA51AN
ANA321     JA8670

RJCC-RJNT
ANA    /1181 JA83AN
ANA1182      JA83AN

ZSPD-RJNT
CSH825/826 B-5269

-- 2017/4/10 mon -----

RJTT-RJNT
ANA   /312 JA8669
ANA313/316 JA52AN
ANA315/    JA76AN
ANA   /320 JA76AN
ANA319/322 JA51AN
ANA321     JA8568

RJCC-RJNT
ANA    /1181 JA76AN
ANA1182      JA76AN

RCTP-RJNT
CAL170/171 B-18610

RKSI-RJNT
ASV782/781 HL8280

-- 2017/4/9 sun -----

RJTT-RJNT
ANA   /312 JA8567
ANA313/316 JA52AN
ANA315/    JA60AN
ANA   /320 JA60AN
ANA319/322 JA51AN
ANA321     JA8669

RJCC-RJNT
ANA    /1181 JA60AN
ANA1182      JA60AN


RCTP-RJNT
CAL170/171 B-18609

-- 2017/4/8 sat -----

RJTT-RJNT
ANA   /312 can
ANA313/316 JA607A
ANA315/    JA62AN
ANA   /320 JA62AN
ANA319/322 JA51AN
ANA321     JA8567

RJCC-RJNT
ANA    /1181 JA62AN
ANA1182      
JA62AN

ZYTL-RJNT
CSN613/614 B-6039

ZSPD-RJNT
CSH825/826 B-5260


RKSI-RJNT
ASV782/781 HL8281

-- 2017/4/7 fri -----

RJTT-RJNT
ANA   /312 JA607A
ANA313/316 JA51AN
ANA315/    JA68AN
ANA   /320 JA68AN
ANA319/322 JA52AN
ANA321     JA8669 G/A ATB

RJCC-RJNT
ANA    /1181 JA68AN
ANA1182      JA68AN

RCTP-RJNT
CAL170/171 B-18666

-- 2017/4/6 thu -----

RJTT-RJNT
ANA   /312 JA8971
ANA313/316 JA51AN
ANA315/    JA74AN
ANA   /320 JA74AN
ANA319/322 JA70AN
ANA321     JA607A

RJCC-RJNT
ANA    /1181 JA74AN
ANA1182      JA74AN


RCTP-RJNT
CAL170/171 B-18653

-- 2017/4/5 wed -----

RJTT-RJNT
ANA   /312 JA8567
ANA313/316 JA51AN
ANA315/    JA61AN
ANA   /320 JA61AN
ANA319/322 JA52AN
ANA321     JA8971

RJCC-RJNT
ANA    /1181 JA61AN
ANA1182      JA61AN

ZYTL-RJNT
CSN613/614 B-6039

RKSI-RJNT
ASV782/781 HL8280

-- 2017/4/4 tue -----

RJTT-RJNT
ANA   /312 JA8578
ANA313/316 JA51AN
ANA315/    JA81AN
ANA   /320 JA81AN
ANA319/322 JA52AN
ANA321     JA8567

RJCC-RJNT
ANA    /1181 JA81AN
ANA1182      JA81AN

ZSPD-RJNT
CSH825/826 B-5269

-- 2017/4/3 mon -----

RJTT-RJNT
ANA   /312 JA8579
ANA313/316 JA51AN
ANA315/    JA62AN
ANA   /320 JA62AN
ANA319/322 JA52AN
ANA321     JA8578

RJCC-RJNT
ANA    /1181 JA62AN
ANA1182      JA62AN

RCTP-RJNT
CAL170/171 B-18661

RKSI-RJNT
ASV782/781 HL8255

-- 2017/4/2 sun -----

RJTT-RJNT
ANA   /312 JA604A
ANA313/316 JA52AN
ANA315/    JA63AN
ANA   /320 JA63AN
ANA319/322 JA51AN
ANA321     JA8579

RJCC-RJNT
ANA    /1181 JA63AN
ANA1182      JA63AN


RCTP-RJNT
CAL170/171 B-18617

-- 2017/4/1 sat -----

RJTT-RJNT
ANA   /312 JA8569
ANA313/316 JA52AN
ANA315/    JA55AN
ANA   /320 JA55AN
ANA319/322 JA51AN
ANA321     JA604A

RJCC-RJNT
ANA    /1181 JA55AN
ANA1182      JA55AN
 

ZYTL-RJNT
CSN613/614 B-2296

ZSPD-RJNT
CSH825/826 B-5801

RKSI-RJNT
ASV782/781 HL8255

-- 2017/04--

| | コメント (0) | トラックバック (0)

定点 富山空港 2017/4/30 sun

GWですね。今年は何処にも出かけられず・・・ 大人しく地元でチンとしとっちゃ

RJNT 292300Z 17013KT 130V200 CAVOK 18/M00 Q1008

20170430_rjnt_00ja7928

GW組成か・・ 初便はA320です。

20170430_rjnt_01ja7928

ANA313 RJTT-RJNT JA8947 A320-211

20170430_rjnt_02rantan

二階フロアーでは、今年も台湾ランタン展

20170430_rjnt_03rantan

圓山大飯店さん、ありがとうございます。

RJNT 300000Z 18011KT 130V210 CAVOK 21/01 Q1007

20170430_rjnt_04ja7928

JA7928 R44 ADD

20170430_rjnt_05ja8947

のぞき穴から、のぞくと・・・

20170430_rjnt_06ja8947

JAPAN!

20170430_rjnt_07ja8947

A320トーバー

20170430_rjnt_08ja8947

いってらっしぃ

20170430_rjnt_09ja8947

20170430_rjnt_10ja8947

ANA316 RJNT-RJTT JA8947 A320-211

RJNT 300100Z 17011KT 110V200 CAVOK 24/00 Q1007

20170430_rjnt_11photo

一階ロビーでは、写真展

20170430_rjnt_12ja74an

20170430_rjnt_13ja74an

ANA315 RJTT-RJNT JA74AN B737-881

RJNT 300200Z 16009KT 100V210 CAVOK 26/01 Q1007

20170430_rjnt_14b18663

公園は、親子連れで賑わっています。

20170430_rjnt_15b18663

20170430_rjnt_16b18663

CAL170 RCTP-RJNT B-18663 B737-8AL

20170430_rjnt_17ja182c

JA182C C182S

20170430_rjnt_18ja02kg

JA02KG A109E KGK

今朝、ヤンキーマイクさんが小矢部に帰ってきた。近日中に交代やね。

20170430_rjnt_19ja74an

北海道いきたいなぁー

20170430_rjnt_20ja3842

定期便を待たせる、お客さん

20170430_rjnt_21ja3842

JA3842 A36

20170430_rjnt_22ja74an

20170430_rjnt_23ja74an

西風が強いのです

20170430_rjnt_24ja74an

ANA1181 RJNT-RJCC JA74AN B737-881

RJNT 300300Z 20009KT 160V240 CAVOK 28/02 Q1006

20170430_rjnt_25ja201m

JA201M  PA28-RT-201T

20170430_rjnt_26ja6768

JA6768 B412EP 富山県消防防災

20170430_rjnt_27ja7928

JA7928 R44 ADD

20170430_rjnt_28b18663

20170430_rjnt_29b18663

20170430_rjnt_30b18663

CAL171 RJNT-RCTP B-18663 B737-8AL

RJNT 300400Z 26016KT 9999 FEW090 28/00 Q1006

これにて、一旦帰宅。イロイロ忙しいのよ。

さて、良い子は夜遊びしないのを

RJNT 301000Z 27009KT 9999 FEW030 BKN080 22/07 Q1009

夕方から山岳遭難で出動していたタンゴさん。日が暮れてから帰ってきて、給油中でした。

20170430_rjnt_31ja139t

JA135T AW135 富山県警察

20170430_rjnt_32ja61an

ANA320の夜景 マニア輪ねー

20170430_rjnt_33ja61an

ANA322 RJNT-RJTT JA61AN B737-881

久しぶりの夜撮りで、ちっとも止まらない・・・

RJNT 301100Z 28011KT 9999 FEW030 BKN090 21/07 Q1010

20170430_rjnt_34ja513a

JA513A TB20

昼に一つだけ空いていたスポットにお泊りの機体が

20170430_rjnt_35ja113a

最終便です。

20170430_rjnt_36ja113a

尾灯がついているのはGood

20170430_rjnt_37ja113a

青組みの新しいA321です。能登往復してからやってきました。

20170430_rjnt_38ja113a

エンドまで転がって、ターニングパッド

20170430_rjnt_39ja113a

ANA321 RJTT-RJNT JA113A A321-211

RJNT 301200Z 28008KT 260V340 9999 FEW030 BKN090 20/08 Q1011

### whitewing681 さんの動画 ###

#####

では、お休みなさい。

| | コメント (0) | トラックバック (0)

2017/04/28

茶緑 能登空港 2017/4/28 fri

すっかり日の出も早くなって、5時にはもう明るい青空が拝めます。年寄りは早起き、イヤイヤ遠足前の子供の様なもの・・・

RJNW 272300Z 21005KT 140V230 9999 FEW020 11/07 Q1008

20170428_rjnw_00rjnw

ひゃくまんさん に、おはよう

20170428_rjnw_01rjnw

空港ビルも、ようやく開店

20170428_rjnw_02rjnw

成績がイマイチの遠藤関も2体で、お出迎え

RJNW 280000Z 21008KT 170V260 9999 FEW030 13/03 Q1008

20170428_rjnw_04rjnw

きのこが特徴の、春の能登空港にやって来ました。

20170428_rjnw_05n858gt

PAC947 PANC-VHHH N858GT B747-87UF

みあげれば、青空にエンルート機が良く見えます。

20170428_rjnw_06ja8400

羽田からの午前便が、やってきた

20170428_rjnw_07ja8400

20170428_rjnw_08ja8400

20170428_rjnw_09ja8400

ANA747 RJTT-RJNW JA8400 A320-211

20170428_rjnw_10ja8400

お出迎えも閑散としています。

RJNW 280100Z 25008KT 180V300 9999 FEW030 14/02 Q1008

20170428_rjnw_11ja8400

20170428_rjnw_12ja8400

20170428_rjnw_13ja8400

ANA748 RJNW-RJTT JA8400 A320-211

20170428_rjnw_14ja8400

世の中、明日からGWらしいです。

RJNW 280200Z 24008KT 200V280 9999 FEW030 SCT040 16/05 Q1008

20170428_rjnw_15ja08fj

おや、見慣れない色の飛行機が、やってきた

20170428_rjnw_16ja08fj

ティーグリーンって、言うがや茶

20170428_rjnw_17ja08fj

FDA6493 RJSS-RJNW JA08FJ ERJ-175STD

20170428_rjnw_18ja08fj

学園の生徒でいっぱいです。

### whitewing681 ###

#####

20170428_rjnw_19ja08fj

なんか、手作り感満載のトーバー

20170428_rjnw_20ja08fj

グランドスタッフも興味深々

20170428_rjnw_21wje

仙台からお客さんを運んで、能登からは熊本へのチャーターです。

20170428_rjnw_22wje

エプロン横の草地では・・・

20170428_rjnw_23wje

大方の骨組みが組みあがった状態

20170428_rjnw_24nte

能登VOR/DMEが始めての更新工事の予定で・・・

RJNW 280300Z 23012KT 9999 FEW030 SCT040 16/05 Q1007

20170428_rjnw_25ja08fj

きっと熊本では、くまモンが出迎えて・・ くれるのかな

20170428_rjnw_26ja08fj

20170428_rjnw_27ja08fj

20170428_rjnw_28ja08fj

20170428_rjnw_29ja08fj

FDA6482 RJNW-RJFT JA08FJ ERJ-175STD

20170428_rjnw_30ja08fj

帰りは、30日の夕方

20170428_rjnw_31wje

能登VOR/DMEの代替は、輪島VOR/DME

20170428_rjnw_32wje

設備一式は、これらのコンテナに収納されている。

RJNW 280500Z 24015KT 210V270 9999 FEW030 17/07 Q1006
RJNW 280400Z 22012KT 9999 FEW030 SCT040 15/05 Q1007

20170428_rjnw_33pat

なんがーい昼休みの間にあっと驚く、最新ツール。ドローンでなにやら・・・

RJNW 280600Z 24015KT 9999 FEW030 17/06 Q1005

20170428_rjnw_34fvc

いつもの丘で午後便を待っていると・・・

20170428_rjnw_35fvc

配置につきましたー

20170428_rjnw_36terminal

送迎デッキは、人だかり・・ なんだ、なんだこの騒ぎは・・

20170428_rjnw_37ja112a

見えてきました。能登空港初飛来のA321が、やってきた

20170428_rjnw_38ja112a

機材大型化 ですね。

20170428_rjnw_39ja112a

後ろの方にボコがついています。

20170428_rjnw_40ja112a

ANA759 RJTT-RJNW JA112A A321-211

20170428_rjnw_41ja112a

新しい機体は、綺麗やねー

20170428_rjnw_42fcv

おっと、水撒き

20170428_rjnw_43ja112a

綺麗な機体は、より綺麗に・・・

20170428_rjnw_44ja112a

今じゃ、どこでも、なんでもウォーターキャノン

20170428_rjnw_45ja112a

ん、こう見ると、能登空港には、でかい

### whinte681 さんの動画 ###

#####

20170428_rjnw_46ja112a

見送りは、山の上から

RJNW 280700Z 22011KT 9999 FEW030 16/04 Q1005

20170428_rjnw_47ja112a

学園も明日からGWなのかな・・ 山にも一杯見学に来た。

20170428_rjnw_48ja112a

パイロットさんと記念撮影

20170428_rjnw_49ja112a

明日も午後便は、A321

20170428_rjnw_50ja112a

20170428_rjnw_51ja112a

20170428_rjnw_52ja112a

20170428_rjnw_53ja112a

20170428_rjnw_54ja112a

ANA750 RJNW-RJTT JA112A A321-211

20170428_rjnw_55ja112a

利用客が増えて、通常で入るようになるとイイですね。

20170428_rjnw_56ja112a

また、逢いましょう・・・ ヤァヤァヤァ

RJNW 280800Z 23013KT 9999 FEW030 15/04 Q1005

| | コメント (0) | トラックバック (0)

2017/04/27

趣味的航空路誌改訂情報 2017/4/27 thu

趣味的航空路誌改訂情報 2017/4/27 thu
4月27日の航空路誌改訂から、めぼしいものをピックアップ。これはあくまでも小生が趣味的にメモとして記録しているものです。

○着陸料の改正等

○機関別個別コードの改正
Chubu

○運航者略号の改正
FJV 廃止
SBR SUBARU 新設

○那覇進入管制区におけるTCAアドバイザリー業務の提供開始
那覇ターミナルコントロールエリア(那覇TCA)

○広域対空援助業務における対空送受信サイト(山梨A/G)の廃止

○新島TACAN(NJT) の制限事項の変更

○最低気象条件等に係る一般適用事項の改正

○方式設定の基準に係る記載事項の変更

○RNAV 経路の改正
Revision of RNAV route: Y12

○築城TACAN(TQT) の座標の変更

○位置通報点の設定、改正及び廃止
Establishment of reporting point;
ENGEZ エンゲツ, GALAS ガラス, HAYAH ハヤ, MOTOQ モトック, MUROH ムロー, NOKMO ノクモ, NOUEH ノウエ, PANDA パンダ, RAYJO レイジョー, SAKAR サカー, SANDN サンダン, WATCH ウォッチ, YATAR ヤター, YOKAI ヨーカイ
Revision of reporting point;
HIMEH, KANMO, MINNE, OGORI, OKUNI, SANKO, SARBA, USSAH
Abolishment of reporting point;
AKKIE, AMORI, BUZEN, HONBA, KUNIE, KUSUU, NATAH, TENGU, TGAWA, YABAH

○出雲空港における飛行の方式の設定等
Establishment → OKUNI ARRIVAL
RNAV(GNSS) RWY07

○鹿児島空港における計器進入方式の改正
ILS Y or LOC Y RWY34

○松山空港における飛行の方式の設定等
Establishment → IYO ONE DEPARTURE
Establishment → SAKAR ONE DEPARTURE
Establishment → RANDY TRANSITION
Establishment → JINBE TRANSITION
Establishment → ROSIE TRANSITION
Establishment → KOCHI TRANSITION
Establishment → MARCO ONE DEPARTURE
ROBIN WEST ARRIVAL
ROBIN EAST ARRIVAL
MADON ARRIVAL

○鹿児島空港におけるRESAに係る記載事項の変更

○南紀白浜空港におけるMSAS の追加

○南紀白浜空港における飛行の方式の設定等
NANKI REVERSAL TWO DEPARTURE → NANKI REVERSAL THREE DEPARTURE
KISEI THREE DEPARTURE → Abolishment
ISIMA FOUR DEPARTURE → Abolishment
Establishment → KUSHIMOTO ONE DEPARTURE
Establishment → RAYJO NORTH ARRIVAL
Establishment → RAYJO SOUTH ARRIVAL
LOC RWY15
VOR RWY15
VOR A
Establishment → RNAV(GNSS) RWY15
Establishment → RNAV(GNSS) RWY33
TAKE OFF MINIMA

○東京国際空港における計器進入方式の記載事項の変更
ILS Z RWY23
LDA W RWY23

○築城飛行場における飛行の方式の改正
MISHIMA TWO DEPARTURE → MISHIMA THREE DEPARTURE
HIMESHIMA TWO DEPARTURE → HIMESHIMA THREE DEPARTURE
KUGA FOUR DEPARTURE → KUGA FIVE DEPARTURE
HIMESHIMA REVERSAL ONE DEPARTURE → HIMESHIMA REVERSAL TWO DEPARTURE
NAKATSU REVERSAL ONE DEPARTURE → NAKATSU REVERSAL TWO DEPARTURE
KANMO TRANSITION
MINNE TRANSITION
OGORI TRANSITION
HIMEH ARRIVAL
TACAN Z RWY25
TACAN Y RWY25
TACAN X RWY25
TACAN Z RWY07
TACAN Y RWY07
TACAN X RWY07
TAKE OFF MINIMA
WX MINIMA CONCERNING PAR/ASR APCH PROCEDURE

□築城TACAN(TQT)の運用休止及び代替措置について
築城TACANは、工事のため次の期間運用休止される 2016.9.15 - 2017.5.24
代替に仮設築城TACAN(ZZT)が運用される
築城飛行場における標準計器出発方式及び転移経路の一時変更
MISHIMA TWO DEPARTURE
HIMESHIMA TWO DEPARTURE
MUSASHI TRANSITION
KUGA FOUR DEPARTURE
NAKATSU REVERSAL ONE DEPARTURE
OGORI TRANSITION
築城飛行場における標準計器到着方式の一時変更
HIMEH ARRIVAL
築城飛行場における計器進入方式の一時変更
TACAN Z RWY25
TACAN Y RWY25
TACAN X RWY25
TACAN Z RWY07
TACAN Y RWY07
TACAN X RWY07

□入間TACAN(YLT)の運用休止及び代替措置について
入間TACAN(YLT)の運用休止 2016.11.10 - 2017.6.21
入間TACANは、工事のため次の期間運用休止される
代替に仮設入間TACAN(WWT)が運用される
入間飛行場における標準計器出発方式の一時変更
IRUMA NORTH DEPARTURE (FOR JET)
OMIYA ONE DEPARTURE
入間飛行場における計器進入方式の一時変更
TACAN RWY17
TACAN RWY35
HI-TACAN RWY17
HI-TACAN RWY35

□入間 GCA において使用する周波数の一時変更について
GCA装置の工事のため、GCA-ASR-PARの周波数が一時的に変更される。
2017.3.2 - 2017.9.30

□関宿VOR/DME(SYE)の運用休止及び代替措置について
関宿VOR/DME(SYE)の運用休止 2017.3.30 - 2017.9.13
関宿VOR/DMEは、工事のため次の期間運用休止される
代替に仮設野田VOR/DME(NDE)が運用される
成田国際空港における標準計器出発方式の一時変更
AKAGI TWO DEPARTURE
成田国際空港における計器進入方式の一時変更
ILS Y or LOC RWY16R (CATⅡ&Ⅲ)
VOR RWY16R
ILS Y or LOC RWY16L
VOR RWY16L
成田国際空港における待機方式の一時変更
東京国際空港における標準計器出発方式の一時変更
SEKIYADO TWO DEPARTURE
東京国際空港における計器進入方式の一時変更
ILS X RWY34L
LOC X RWY34L
ILS Z RWY34R(CATⅡ&Ⅲ)
LOC Z RWY34R
ILS RWY22
LOC RWY22
LDA Z RWY22
LDA X RWY22
LDA W RWY22
HLDG PATTERN

□新島TACAN (NJT) の運用休止について
新島TACANは、工事のため次の期間運用休止される 2017.2.2 - 2017.3.29

□臨時試験空域の設定について(紀伊半島沖)
2016.3.3 - 2018.3.30
MRJ-200型機の試験飛行のため臨時試験飛行空域が設定される
紀伊半島沖臨時試験空域

□無操縦者航空機 (グローバルホーク) の飛行について
横田飛行場周辺 2017.5.1 - 2017.10.31

| | コメント (0) | トラックバック (0)

2017/04/26

濡虎 富山空港 2017/4/26 wed

今日は昨晩から雨。雪解けが進む雨ですね。青組みの春山開山に伴う機材大型化も明日まで・・

RJNT 252300Z 18007KT 140V220 9999 -SHRA FEW020 BKN050 BKN070 16/10 Q1015

20170426_rjnt_00ja604a

視界があまり良くないですが、薄いので視認は問題なさそう

20170426_rjnt_01ja604a

朝のB6は、スターウォーズ

20170426_rjnt_02ja604a

ジャワー・・・ って

20170426_rjnt_03ja604a

ANA313 RJTT-RJNT JA604A B767-381ER

RJNT 260000Z 30003KT 270V330 9999 -SHRA FEW020 BKN050 BKN080 14/12 Q1015

20170426_rjnt_04ja604a

雨はしとしと

20170426_rjnt_05ja604a

水の美景

20170426_rjnt_06ja604a

20170426_rjnt_07ja604a

ANA316 RJNT-RJTT JA604A B767-381ER

RJNT 260100Z VRB02KT 9999 -SHRA FEW020 BKN050 BKN080 15/12 Q1014

20170426_rjnt_08b6041

20170426_rjnt_09b6041

つばめがインターセプト

20170426_rjnt_10b6041

CSN613 ZYTL-RJNT B-6041 A319-132

20170426_rjnt_11ja60an

20170426_rjnt_12ja60an

ANA315 RJTT-RJNT JA60AN B737-881

RJNT 260200Z 36003KT 320V040 9999 -SHRA FEW010 SCT050 BKN080 16/13 Q1014

20170426_rjnt_13b18610

風が北に振ってきて、サークリングと

20170426_rjnt_14b18610

20170426_rjnt_15b18610

20170426_rjnt_16b18610

CAL170 RCTP-RJNT B-18610 B737-809

20170426_rjnt_17ja60an

20170426_rjnt_18ja60an

20170426_rjnt_19ja60an

ANA1181 RJNT-RJCC JA60AN B737-881

20170426_rjnt_20b6041

20170426_rjnt_21b6041

20170426_rjnt_22b6041

CSN614 RJNT-ZYTL B-6041 A319-132

RJNT 260300Z 30006KT 270V090 9999 -SHRA FEW010 SCT050 BKN080 16/14 Q1013

20170426_rjnt_23b50011

今シーズン2回目の虎航

20170426_rjnt_24b50011

20170426_rjnt_25b50011

TTW2264 RCKH-RJNT B-50011 A320-232

20170426_rjnt_26b50011

親子そろいぶみ

20170426_rjnt_27b18610

20170426_rjnt_28b18610

20170426_rjnt_29b18610

20170426_rjnt_30b18610

CAL171 RJNT-RCTP B-18610 B737-809

RJNT 260430Z 26007KT 8000 -SHRA FEW006 SCT008 BKN030 15/13 Q1013 RMK 1ST006 3CU008 5CU030 A2993 4000NE-SE

20170426_rjnt_31b50011

20170426_rjnt_32b50011

20170426_rjnt_33b50011

TTW2265 RJNT-RKCH B-50011 A320-232

20170426_rjnt_34b50011

また、シーズンに来てくださいな。

RJNT 260500Z 27005KT 240V340 9999 -SHRA FEW003 SCT008 BKN050 15/13 Q1013

| | コメント (0) | トラックバック (0)

2017/04/18

虎航 富山空港 2017/4/18 tue

昨晩の雨降りは、たいしたことは無かったのですが、一晩明けてみると、南西風が強い。花散らしの嵐ですね。

RJNT 172300Z 27025G38KT 9999 FEW040 SCT070 17/09 Q0994

20170418_rjnt_00uk67004

UZB527 UTTT-RJAA UK-67004  B767-33PER

見上げると上空は青空。県境には雲がびっしり。いろいろなお客さんが通過していきます。

20170418_rjnt_01ja8324

270度から25ノット これでもか・・とくらい蟹ってます。

20170418_rjnt_02ja8324

富山空港は、高速橋での吹き上げが鬼門

20170418_rjnt_03ja8324

幸い、WSアラートにはならずに、着陸できました。

20170418_rjnt_04ja8324

ANA313 RJTT-RJNT JA8324 B767-381

RJNT 180000Z 27023G38KT 250V310 9999 FEW030 SCT040 16/09 Q0996

20170418_rjnt_05hl8280

次の朝鮮者は・・・ 臨時のエアソウル

20170418_rjnt_06hl8280

ASV7828 RKSI-RJNT HL8280 A321-231

20170418_rjnt_07hl8280

雪の大谷対応で、午前の早い時間での飛来です。

20170418_rjnt_08hl8280

今日は、いろいろな取り合わせが見られます。

20170418_rjnt_09disp

京城と、標記したら・・

20170418_rjnt_10ja8324

実は、この時間のB6もアルペンルート観光対応

20170418_rjnt_11ja8324

20170418_rjnt_12ja8324

離陸時も横風注意、煽られています。

20170418_rjnt_13ja8324

ANA316 RJNT-RJTT JA8324 B767-381

RJNT 180100Z 27022G33KT 9999 FEW040 SCT070 17/09 Q0996

20170418_rjnt_14robe

国際線ロビーは、観光客でごった返しています。

20170418_rjnt_15disp

エアソウルに今日始めてのお客様、タイガーエア台湾

20170418_rjnt_16disp

続いて、華航に上海。

20170418_rjnt_17bus

虎航のお客様は、富山・宇部の出入り。待機するバスは、北九州に広島ナンバー。

20170418_rjnt_18ja71an

すっかり忘れてしまいそうな定期便。

20170418_rjnt_19ja71an

ANA315 RJTT-RJNT JA71AN B737-881

20170418_rjnt_20hl8280

一向に風は収まりません

20170418_rjnt_21hl8280

20170418_rjnt_22hl8280

ASV7829 RJNT-RKSI HL8280 A321-231

20170418_rjnt_23b50017

初飛来の虎航にも、富山嵐は、容赦ありません。

20170418_rjnt_24b50017

でも、安定してアプローチ。

20170418_rjnt_25b50017

TTW2264 RKCH-RJNT B-50017 A320-232

20170418_rjnt_26b50017

覘くかわいいロゴ

20170418_rjnt_27b50017

シマシマの虎模様に青組。

RJNT 180200Z 27022G32KT 9999 FEW040 17/09 Q0996

20170418_rjnt_28ja71an

千歳も暴風で、条件付運航。セパレーション待ちきれずに、VFRクライムとな。

20170418_rjnt_29ja71an

ANA1181 RJNT-RJCC JA71AN B737-881

20170418_rjnt_30b18615

今日は能登にも入っている華航。

20170418_rjnt_31b18615

CAL170 RCTP-RJNT B-18615 B737-809

20170418_rjnt_32b18615

富山で、親子がそろいました。

20170418_rjnt_33disp

漢字で表現できる対地

RJNT 180300Z 27020KT 9999 FEW040 18/09 Q0996

20170418_rjnt_35b18615

虎が先発

20170418_rjnt_36b50017

20170418_rjnt_37b50017

次の飛来は、来週水曜の26日

20170418_rjnt_38b50017

20170418_rjnt_39b50017

TTW2263 RJNT-RCKH B-50017 A320-232

20170418_rjnt_40b50017

また、来てねー!

20170418_rjnt_41ja70rc

と、こちらにもお客様が・・ 富大病院に着陸する長岡ドクターへり

20170418_rjnt_42b5269

本日国際線のトリは、上海航空。

20170418_rjnt_43b5269

CSH825 ZSPD-RJNT B-5269 B737-76D

20170418_rjnt_44b5269

エンドまで行って帰ってきた。

20170418_rjnt_45b5269

こちらが並ぶのも、華航の増便中のみ

RJNT 180400Z 27022KT 240V300 9999 FEW040 18/09 Q0997

20170418_rjnt_46b18615

場所を移動して、対岸から・・

20170418_rjnt_47b18615

20170418_rjnt_48b18615

CAL171 RJNT-RCTP B-18615 B737-809

20170418_rjnt_49b18615

台湾での昨日の事件は、悲しいですね。

20170418_rjnt_50ja70rc

移動する間も無く、富大病院から給油にやって来ました。

20170418_rjnt_51ja70rc

約15分で出発。富大病院への実ミッションだったらしい。

20170418_rjnt_52ja70rc

JA70RC A109SP SAK 新潟県西部ドクターへり

20170418_rjnt_53b5269

お客様フィーバーは、これにて終了。

20170418_rjnt_54b5269

ギャー、斜めってる。

20170418_rjnt_55b5269

CSH826 RJNT-ZSPD B-5269 B737-76D

春のチャーター等は、毎年目が離せません。

RJNT 180500Z 28024KT 9999 FEW025 SCT070 17/10 Q0997

| | コメント (0) | トラックバック (0)

2017/04/17

高田駐屯地創設67周年記念行事 上越市 2017/4/16 sun

花見シーズン真っ只中、白い雪山が美しいお隣の国へお出かけー・・・

20170416_takada_00sakura

残雪が美しい妙高

20170416_takada_01sakura

ホワイトとピンクの桜

20170416_takada_02sakura

さくら と トラック

20170416_takada_03sakura

今日は高田自衛隊の記念行事

20170416_takada_04sakura

高田城は観桜会

20170416_takada_05sakura

駐屯地の桜も美しい

20170416_takada_06shobousha

グランドに向かうと・・ 消防車が放水

20170416_takada_07sakura

散水車も桜バックに

20170416_takada_08sakura

各隊が入場場所へ参集中

20170416_takada_09nyujou

10時過ぎて、音楽隊を先頭に入場

20170416_takada_10takada

高田は、普通と施設の駐屯地

20170416_takada_11takada

施設は第5施設群

20170416_takada_12takada

整列が終わり執行者が登壇

20170416_takada_13takada

本日のメインゲストは、防衛大臣のはずが・・ 直近の情勢により、防衛大臣政務官が代理。

20170416_takada_14takada

国旗入場

20170416_takada_15takada

国旗に注目

20170416_takada_16takada

巡閲

20170416_takada_17takada

上空には、観閲行進に参加するへりが、待機中

20170416_takada_18takada

観閲行進の隊形に移れ

20170416_takada_19takada

観閲行進 まずは、第2普通科連隊から

20170416_takada_20g2h1

第1普通科中隊

20170416_takada_21g2h2

第2普通科中隊

20170416_takada_22g2k

自衛官候補生課程の教育隊

20170416_takada_23g2h

車両行進に移って、第2普通科連隊本部管理中隊

20170416_takada_24g2h

中距離多目的誘導弾 

20170416_takada_25g2h

本管中隊の82式指揮通信車を先頭に第3普通科連隊

20170416_takada_26g5g

続いて、第5施設群

20170416_takada_27g5g

本部管理中隊の83式地雷敷設装置

20170416_takada_28g393

第393施設中隊の75式ドーザー

20170416_takada_29g394

第394施設中隊の81式自走架柱橋

20170416_takada_30g102ss

支援隊に移ります 東部方面後方支援隊第102施設直接支援大隊第2施設直接支援中隊 あー、ながっ

20170416_takada_31g12ks

第12後方支援隊第2整備中隊第1普通科直接支援小隊の重レッカ

20170416_takada_32g12at

行事支援に第12対戦車中隊(新町)の79式対舟艇対戦車誘導弾

20170416_takada_33g12ko

同じく第12高射特科中隊(相馬原)の93式近距離地対空誘導弾

20170416_takada_34g12tk

第12特科隊(宇都宮)の155mm榴弾砲

20170416_takada_35g12t

トリは第12偵察隊(相馬原)の87式偵察警戒車

20170416_takada_36jg31288

JG31288 OH-6D XII 第12ヘリコプター隊(北宇都宮)

20170416_takada_37jg43124

JG43124 UH-60JA XII 第12ヘリコプター隊(北宇都宮)

これにて、観閲行進は終了

20170416_takada_38jg52966

JG52966 CH-47JA XII 第12ヘリコプター隊第2飛行隊(相馬原)

上空をチヌークが航過すると・・

20170416_takada_39pj

空挺降下 第1空挺団(習志野)

20170416_takada_40pj

地元出身者による降下でした。

20170416_takada_41pj

一同、敬礼

20170416_takada_42grapa

次は、ラッパ吹奏

20170416_takada_43gmogi

模擬戦闘訓練の準備が整って、赤軍の皆さんが狼煙を・・・

20170416_takada_44gmogi

偵察にオートバイの偵察員が出場

20170416_takada_45gmogi

恒例のジャーンプ

20170416_takada_46gmogi

オートバイを盾に敵状偵察

20170416_takada_47gmogi

背後では、榴弾砲が展開します。

20170416_takada_48gmogi

偵察警戒車が進出して・・

20170416_takada_49gmogi

空には航空偵察のOHが

20170416_takada_50gmogi

整然とジャンプ台を片付けます

20170416_takada_51gmogi

最新装備の中距離多目的誘導弾が展開 対戦車装備ですが、今日は敵方に戦車はいません。

20170416_takada_52jg43124

60が進出

20170416_takada_53gmogi

ビル制圧にリペリングで降下

20170416_takada_54gmogi

支援砲撃に榴弾砲が吠えます。今日の「大きな音がします」は、これのみ

20170416_takada_55gmogi

弾着して煙幕が漂う中、軽装甲機動車で敵と肉薄します。

20170416_takada_56gmogi

迫撃砲小隊が展開して

20170416_takada_57gmogi

3チームで配置に付きました

20170416_takada_58gmogi

迫撃砲の攻撃が始まります

20170416_takada_59gmogi

時間をカウントして・・・ 次弾 81mm迫撃砲

20170416_takada_60gmogi

重迫小隊も発射ー 120mm迫撃砲

20170416_takada_61gmogi

施設教導隊から支援の96式装輪装甲車が攻撃に加わり

20170416_takada_62gmogi

下車戦闘に

20170416_takada_63gmogi

一線に展開して・・

20170416_takada_64gmogi

その間に迫撃砲小隊は、陣地移動

20170416_takada_65gmogi

榴弾砲が支援砲撃

20170416_takada_66gmogi

ズンズン前進

20170416_takada_67gmogi

120mmいきまーす

20170416_takada_68gmogi

地雷原があった・・ と、いう想定 唯一の装軌車92式地雷原処理車

20170416_takada_69gmogi

60からも支援射撃

20170416_takada_70gmogi

陣地から覘く赤軍が・・ かわいい

20170416_takada_71gmogi

総突撃ぃぃぃ・・

20170416_takada_72jg52966

チヌークも航過して・・ 状況終了。

20170416_takada_73gmogi

終了報告

20170416_takada_74gmogi

へりは、関山演習場へ

| | コメント (0) | トラックバック (0)

2017/04/14

慶祝 富山空港 2017/4/14 fri

本日は、立山黒部アルペンルート全通前日。そして、中華航空が富山定期便就航して5周年のおめでたい日。ささやかながらお祝い事があるようです。

RJNT 132300Z 17011KT 130V200 9999 FEW100 12/M01 Q1016

20170414_rjnt_00ja52an

ANA313 RJTT-RJNT JA52AN B737-881

RJNT 140000Z 17010KT 140V200 9999 FEW100 15/M01 Q1016

20170414_rjnt_01ja6516

JA6516 AS350B3 AKF

20170414_rjnt_02sock

今日は南風が強い

20170414_rjnt_03tiger

これがあるのを教えてもろた スマートやぜ

20170414_rjnt_04tulip

砺波のチューリップも花盛り

20170414_rjnt_05bil

一つ悲報 階段室に描いてあった歴代の飛行機の機影が消えました

20170414_rjnt_06hinomaru

日本にようこそ、富山にようこそ

20170414_rjnt_07ja52an

20170414_rjnt_08ja52an

20170414_rjnt_09ja52an

ANA316 RJNT-RJTT JA52AN B737-881

RJNT 140100Z 17007KT 100V220 9999 FEW080 18/M00 Q1017

20170414_rjnt_10fvc

消防車は朝からなにやら訓練

20170414_rjnt_11bil

さて、ロビーでは式典の準備が進んでいます。華航の総経理がいらっしゃいます。

20170414_rjnt_12bil

新しい雪の大谷

20170414_rjnt_13bil

慶祝 看板の準備もオーケー

20170414_rjnt_14ja82an

ANA315 RJTT-RJNT JA82AN B737-881

20170414_rjnt_15ja6819

JA6819 B412EP 国土交通省北陸地方整備局「ほくりく」

20170414_rjnt_16ja6819

今日のお客様一番さん

RJNT 140200Z 17007KT 080V220 9999 FEW080 20/00 Q1016

20170414_rjnt_17ja6516

JA6516

20170414_rjnt_18b18661

今日は、能登にも華航のチャーターが入っている。

20170414_rjnt_19b18661

T1で止まれない訳ではないが・・・ 流すことが事前に決められてたみたい

20170414_rjnt_20b18661

CAL170 RCTP-RJNT B-18661 B737-8AL

20170414_rjnt_21ja6819

「ひ」さん、出発

20170414_rjnt_22ja82an

20170414_rjnt_23ja82an

ANA1181 RJNT-RJCC JA82AN B737-881

20170414_rjnt_24bil

お客様が到着して正午から式典。しかーし、小生はそんなとこ見てる訳にはいかなーい。

RJNT 140300Z 16006KT 070V250 9999 FEW080 22/01 Q1015

20170414_rjnt_25ja007g

お昼過ぎに入感・・ 今日第二のお客さん、上空6000ftで視認できました。

20170414_rjnt_26ja007g

VOR-Aのアプローチコースをラン

20170414_rjnt_27ja007g

今日は富山VOR/DMEの飛行試験

20170414_rjnt_28ja007g

JA007G DHC8-315Q CAB

20170414_rjnt_29ja6819

JA6819

20170414_rjnt_30ja6516

JA6516 今日は、これしか動いてないみたい

20170414_rjnt_31ja007g

これにてあっさり試験終了。西方面へ向かいました。

20170414_rjnt_32b18661

RJNT 140400Z 23008KT 190V280 9999 FEW080 22/M00 Q1014

20170414_rjnt_33b18661

20170414_rjnt_34b18661

20170414_rjnt_35b18661

CAL171 RJNT-RCTP B-18661 B737-8AL

20170414_rjnt_36ja6819

JA6819 南東方面に何度も出て行きます

20170414_rjnt_37x9hilv

今日第三のお客様 銀色の渋いヤツ

20170414_rjnt_38x9hilv

VJT624 ZGSZ-RJNT 9H-ILV CRJ-200(Callenger850)

20170414_rjnt_39x9hilv

これもアルペンルート開通に合わせてかな

20170414_rjnt_40x9hilv

これでCRJ-200ながよ

20170414_rjnt_41hl8281

今日第四のお客様

20170414_rjnt_42hl8281

ASV7828 RKSI-RJNT HL8281 A321-231

20170414_rjnt_43hl8281

今月一杯、金曜と火曜に臨時便として運航されます

20170414_rjnt_44ja6768

JA6768 B412EP 富山県消防防災

RJNT 140500Z 29012KT 9999 FEW070 SCT/// 23/05 Q1014

20170414_rjnt_45x9hilv

VJT624 RJNT-RJGG 9H-ILV CRJ-200(Callenger850)

RJNT 140600Z 27014KT 9999 FEW070 BKN/// 21/02 Q1014

20170414_rjnt_46hl8281

ASV7829 RJNT-RKSI HL8281 A321-231

いよいよ春が踊る季節です。

| | コメント (0) | トラックバック (0)

2017/04/13

あの日2 小松飛行場 2017/4/4 tue

エマーが、終了してデッキを離脱。共生公園へ移動。

RJNK 040300Z 31009KT 9999 FEW030 13/02 Q1026

20170404_rjnk_60sakura

ターミナル内にも桜が咲いています。

RJNK 040400Z 31010KT 270V330 9999 FEW030 13/03 Q1026

20170404_rjnk_61ja8992

JTA36 ROAH-RJNK JA8992 B737-446

RJNK 040500Z 31009KT 270V340 9999 FEW030 SCT250 13/04 Q1026

20170404_rjnk_62ja309j

JAL187 RJTT-RJNK JA309J B737-846

20170404_rjnk_63ja08rj

IBX86 RJFF-RJNK JA08RJ CRJ-702

20170404_rjnk_64f728090

午前中キャンセルになった白組がフライト

20170404_rjnk_65agr

陽炎の宴

20170404_rjnk_66ja8992

JTA37 RJNK-ROAH JA8992 B737-446

20170404_rjnk_67h784602

78-4602 UH-60J KOMATSU-ARS H43

20170404_rjnk_68ja08rj

IBX18 RJNK-RJAA JA08RJ CRJ-702

20170404_rjnk_69ja893f

JA893F B412EP 石川県消防防災

20170404_rjnk_70sky

見上げると、へんてこな飛行雲

20170404_rjnk_71ja309j

JAL188 RJNK-RJTT JA309J B737-846

RJNK 040600Z 32006KT 280V360 9999 FEW035 BKN250 13/04 Q1026

20170404_rjnk_72f728090

72-8090 F-15DJ AGR G11

20170404_rjnk_73f928095

92-8095 F-15DJ AGR G12

20170404_rjnk_74f328081

20170404_rjnk_75f328081

32-8081 F-15DJ AGR G13

20170404_rjnk_76h

UHは基地内で吊り上げ訓練

20170404_rjnk_77t265691

26-5691 T-4 AGR G62

この日は、このへんで帰還です。

| | コメント (0) | トラックバック (0)

2017/04/12

あの日 小松飛行場 2017/4/4 tue

今年初めての小松。日の出も早くなって、朝早く出るのも楽しい季節ですね。でも、少し寒い空気の中、お日様に追いかけられながら到着。

20170404_rjnk_00cc

ちゅんちゅんは、早起き

20170404_rjnk_01pj

着いて間もなくUHが上がって、フィールドパラジャンプ

20170404_rjnk_02pj

目標地点にきっちり着地します。

20170404_rjnk_03f728855

7時半を廻ると遠くに寝起きの音が聞こえて、ファーストは青組みでした。

20170404_rjnk_04ja329j

青赤のプッシュバック競争は、赤組の勝ち。

20170404_rjnk_05h

パラジャンのUHが降りてきた。 H43

20170404_rjnk_06ja329j

JAL182 RJNK-RJTT JA329J B737-846

20170404_rjnk_07ja81an

ANA752 RJNK-RJTT JA81AN B737-881

20170404_rjnk_08f728855

72-8885 F-15J 303SQ E01

20170404_rjnk_09f428833

42-8833 F-15J 303SQ E02

20170404_rjnk_10f628867

62-8867 F-15J 303SQ E03

20170404_rjnk_11f228813

22-8813 F-15J 303SQ E04

20170404_rjnk_12ja81an

2編隊上がった後に、民航

20170404_rjnk_13f328816

32-8816 F-15J 303SQ E05

20170404_rjnk_14f828091

82-8091 F-15DJ 303SQ E06

20170404_rjnk_15ja05rj

IBX62 RJNK-RJSS JA05RJ CRJ-702

20170404_rjnk_16t865761

86-5761 T-4 303SQ E90

RJNK 032300Z VRB02KT 9999 FEW030 10/04 Q1026

20170404_rjnk_17t865761

フィールド訓練でT/G

20170404_rjnk_18h784602

78-4602 UH-60J KOMATSU-ARS H43

20170404_rjnk_19t865761

#761 ローアプローチも

20170404_rjnk_20u123028

12-3028 U-125A KOMATSU-ARS A41

20170404_rjnk_21f328816

帰ってきた青組フライトは、最初は編隊アプローチ

20170404_rjnk_22f628867

#867 #813

20170404_rjnk_23ja306k

ANA1232 RJFF-RJNK JA306K B737-54K

20170404_rjnk_24f628867

#867

20170404_rjnk_25f228813

#813

20170404_rjnk_26ja658j

JAL184 RJTT-RJNK JA658J B767-346ER

20170404_rjnk_27f728855

#885 #839

20170404_rjnk_28f328816

#816 #091

20170404_rjnk_29f428833

#833

RJNK 040000Z VRB02KT 9999 FEW025 12/01 Q1026

20170404_rjnk_30f828091

#091 大きくバウンドしちゃつたネ

20170404_rjnk_31f328081

ようやく白組さん登校 32-8081

20170404_rjnk_32f528088

52-8088

20170404_rjnk_33ja306k

朝一のみWING運航の福岡便

20170404_rjnk_34ja8322

ANA751 RJTT-RJNK JA8322 B767-381

20170404_rjnk_35ja306k

ANA1231 RJNK-RJFF JA306K B737-54K

20170404_rjnk_36ja8322

この時間で9時半

20170404_rjnk_37ja658j

JALさんは、きちんと並んで、いってらっしゃーい

20170404_rjnk_38ja658j

JAL184 RJNK-RJTT JA658J B767-346ER

20170404_rjnk_39t165661

16-5661 T-4 CAF J18

RJNK 040100Z 28008KT 9999 FEW030 12/02 Q1026

20170404_rjnk_40f928907

92-8907 F-15J 306SQ M21

遅め出場の黄組が、ようやく離陸

20170404_rjnk_41f728960

72-8960 F-15J 306SQ M22

20170404_rjnk_42f228809

22-8809 F-15J 306SQ M23

20170404_rjnk_43f628958

62-8958 F-15J 306SQ M25

20170404_rjnk_44f628089

62-8089 F-15DJ 306SQ M26

20170404_rjnk_45f028918

02-8918 F-15J 306SQ M27

20170404_rjnk_46t565741

56-5741 T-4 306SQ M78

20170404_rjnk_47ja8322

ANA754 RJNK-RJTT JA8322 B767-381

20170404_rjnk_48ja05rj

IBX61 RJSS-RJNK JA05RJ CRJ-702

20170404_rjnk_49t565741

#741 T/G

20170404_rjnk_50u123028

12-3028 U-125A KOMATSU-ARS A41

20170404_rjnk_51ja328j

JAL185 RJTT-RJNK JA328J B737-846

20170404_rjnk_52t565741

白組出席確認 んー、誰ですか欠席は

20170404_rjnk_53h784602

78-4602 UH-60J KOMATSU-ARS H43

20170404_rjnk_54f428833

42-8833 F-15J 303SQ E01

青組のセカンドスタート

20170404_rjnk_55f828091

82-8091 F-15DJ 303SQ E02

20170404_rjnk_56f728885

72-8885 F-15J 303SQ E03

20170404_rjnk_57f628867

62-8867 F-15J 303SQ E04

20170404_rjnk_58f328816

32-8816 F-15J 303SQ E05

20170404_rjnk_59f228813

22-8813 F-15J 303SQ E06

RJNK 040200Z 32008KT 270V340 9999 FEW020 13/02 Q1026

この後は、あの劇場に続きます。

エマー 小松飛行場 2017/4/4 tue

| | コメント (0) | トラックバック (0)

2017/04/11

探春 富山空港 2017/4/10 mon

平野部は花見をするなら、この日かな

RJNT 092300Z VRB02KT CAVOK 07/01 Q1020

20170410_rjnt_00sakura

いたる処に桜を見ることができます。

20170410_rjnt_01ja52an

ANA313 RJTT-RJNT JA52AN B737-881

RJNT 100000Z VRB01KT CAVOK 10/01 Q1020

20170410_rjnt_02ja32nh

やっぱり、こんな日は取材にやってきました。

20170410_rjnt_03ja32nh

JA32NH EC135T2 ANH

20170410_rjnt_04ja52an

ANA316 RJNT-RJTT JA52AN B737-881

RJNT 100100Z 33004KT 260V060 CAVOK 11/M01 Q1020

20170410_rjnt_05fvc

消防車でドライブ・・ したいなぁ

20170410_rjnt_06ja76an

20170410_rjnt_07ja76an

ANA315 RJTT-RJNT JA76AN B737-881

RJNT 100200Z 35005KT 320V050 9999 FEW030 BKN/// 13/M00 Q1019

20170410_rjnt_08ja32nh

JA32NH 山と桜の取材から帰投

20170410_rjnt_09ja76an

先に出て滑走路上で待ちます

20170410_rjnt_10b18610

豪快にライトブレイクしてダウンウインドに

20170410_rjnt_11ja76an

ANA1181 RJNT-RJCC JA76AN B737-881

20170410_rjnt_12b18610

20170410_rjnt_13b18610

20170410_rjnt_14b18610

CAL170 RCTP-RJNT B-18610 B737-809

RJNT 100400Z 01004KT 320V100 9999 FEW040 BKN/// 15/00 Q1018
RJNT 100300Z 36007KT 320V070 9999 FEW040 BKN/// 13/M01 Q1019

20170410_rjnt_15ja32nh

お先に失礼・・

20170410_rjnt_16ja32nh

JA32NH 西の方へ向かった

20170410_rjnt_17b18610

20170410_rjnt_18b18610

CAL171 RJNT-RCTP B-18610 B737-809

20170410_rjnt_19ja4046

JA4046 PA-46-310P LOC Y やった

RJNT 100500Z 01007KT 330V060 9999 FEW040 BKN/// 14/01 Q1017

20170410_rjnt_20dc

空港を後にして、いくつかお花見の名勝を廻って見ました

RJNT 100600Z 36008KT 9999 FEW050 BKN/// 13/02 Q1017

20170410_rjnt_21hl8280

サークリングを予想して待ってみました

20170410_rjnt_22hl8280

ASV782 RKSI-RJNT HL8280 A321-231

RJNT 100700Z 36010KT 9999 FEW050 BKN/// 13/03 Q1016

20170410_rjnt_23ja76an

20170410_rjnt_24ja76an

20170410_rjnt_25ja76an

ANA320 RJNT-RJTT JA76AN B737-881

RJNT 100800Z 36005KT 9999 FEW050 BKN/// 12/04 Q1016

20170410_rjnt_26hl8280

20170410_rjnt_27hl8280

20170410_rjnt_28hl8280

ASV781 RJNT-RKSI HL8280 A321-231

明日は、また雨の予報。

| | コメント (0) | トラックバック (0)

2017/04/10

雨櫻 砺波市 2017/4/9 sun

金沢駐屯地から、すぐ裏山を一山越えると富山なんですよね。少し足を伸ばして庄川水記念公園の桜を愛でに・・

20170409_syokawa_00damu

折からの雨と雪解けで、庄川合口堰堤は、放流中。

20170409_syokawa_01damu

放流口を上から眺められます。

20170409_syokawa_02damu

堰堤を歩いて、対岸から

20170409_syokawa_03sakura

ダム湖の先に桜が咲き誇っています

20170409_syokawa_04sakura

16日まで桜まつり

20170409_syokawa_05sakura

雨なので人出は少なめ

20170409_syokawa_06mizubasyou

水芭蕉は、咲き始めたばかりかな・・

20170409_syokawa_07sakura

20170409_syokawa_08sakura

20170409_syokawa_09sakura

鯉恋の宮から

20170409_syokawa_10sakura

高所恐怖レベルをあげると、桜を上から眺められます。

20170409_syokawa_11sakura

雨にパラソル

20170409_syokawa_12sakura

はい、ここがレベル3

20170409_syokawa_13sakura

碍子参道を戻って・・

20170409_syokawa_14sakura

対岸に金屋石採掘跡が臨めます。

20170409_syokawa_15asano

ふれあいプラザでは、浅野総一郎の電源開発の展示

20170409_syokawa_16damu

明日は、晴れそうかな また機会があれば・・・

| | コメント (0) | トラックバック (0)

2017/04/09

観桜 金沢駐屯地 2017/4/9 sun

昨日は初夏並みの暖かさで、一気に開花した桜。今日は、生憎の小雨の曇天。でも、桜は待ってくれないので、お花見にお出かけ。

20170409_kanazawa_00camp

駐屯地前の桜も満開近し

20170409_kanazawa_01camp

めったに行かない金沢駐屯地です。

20170409_kanazawa_02sakura

桜まつり なのだ

20170409_kanazawa_03sakura

7分咲きかな

20170409_kanazawa_04ksyou

鬼瓦もサクラかな

20170409_kanazawa_05extank

ゲートガードは74式戦車

20170409_kanazawa_06exjg41656

UHもいます exJA41656 UH-1H MH

20170409_kanazawa_07lv

ここからは現役装備 軽装甲機動車 14普-3

20170409_kanazawa_08koukidosha

高機動車 14普-3

20170409_kanazawa_09keisetsujyousha

軽雪上車 14普-本

20170409_kanazawa_10setsujousya

78式雪上車

20170409_kanazawa_11setsujousya

運転台も見れる

20170409_kanazawa_12sakura

イベント会場には火牛中隊

20170409_kanazawa_13sakura

他には展示車両はありませんでした。

20170409_kanazawa_14syoukokan

史料館も見学

20170409_kanazawa_15rikugun

境界杭

20170409_kanazawa_16rapa

アトラクションのラッパメドレー

20170409_kanazawa_17rapa

咲くらっぱ

20170409_kanazawa_18rapa

なかなか楽しめます

20170409_kanazawa_19rapa

そう言う・・? で、なくって曹友だそうで

20170409_kanazawa_20bike

ちびっ子に人気で、なかなか撮れなかったバイク

20170409_kanazawa_21kk

救急車発見 消防車もあったけど・・・・

20170409_kanazawa_22kk

やっぱり、こうやってアンテナがついて実働しているのが、カッコイイね

20170409_kanazawa_23camp

正味1時間で見学終了 次へ

| | コメント (0) | トラックバック (0)

2017/04/05

夕活 富山空港 2017/4/5 wed

北陸新幹線に伴うダイヤ改正後、めったに夕方に河原にいないのですが、木蓮に誘われて夕方活動です。

RJNT 050500Z VRB05KT 9999 FEW080 BKN/// 23/M02 Q1022

20170405_rjnt_00ja6516

JA6516 AS350B3 AKF

20170405_rjnt_01ja6512

JA6512 AS350B3 AKF

RJNT 050600Z 33007KT 290V360 9999 FEW080 OVC/// 22/03 Q1022

20170405_rjnt_02ja6768

JA6768 B412EP 富山県消防防災

20170405_rjnt_03mokuren

赤い木蓮も急に咲き出した。

20170405_rjnt_04ja61an

20170405_rjnt_05ja61an

20170405_rjnt_06ja61an

ANA1182 RJCC-RJNT JA61AN B737-881

20170405_rjnt_07car

いつも鳥除に出動ご苦労さまです。

20170405_rjnt_08hl8280

20170405_rjnt_09hl8280

20170405_rjnt_10hl8280

ASV782 RKSI-RJNT HL8280 A321-231

20170405_rjnt_11hl8280

並ぶ尾翼も新鮮

RJNT 050700Z 02007KT CAVOK 21/04 Q1022

20170405_rjnt_12ja6516

JA6516

20170405_rjnt_13ja61an

ANA320 RJNT-RJTT JA61AN B737-881

20170405_rjnt_14hl8280

ASV781 RJNT-RKSI HL8280 A321-231

RJNT 050800Z VRB03KT CAVOK 20/05 Q1023

| | コメント (0) | トラックバック (0)

2017/04/04

エマー 小松飛行場 2017/4/4 tue

冬の間出不精で、今年初の小松です。のんびり各組を拝めれば・・・ と、思っていましたが、エマー劇場が。まずは、手際の良い基地の皆さんの活躍を。

RJNK 040200Z 32008KT 270V340 9999 FEW020 13/02 Q1026

20170404_rjnk_900t865761

86-5761 T-4 303SQ E56

303セカンドのトリに上がっていくT-4

20170404_rjnk_901ja05rj

IBX RJNK-RJFF JA05RJ CRJ-702

306セカンドのリカバリーが始まって・・

20170404_rjnk_902f928907

#907 #960

20170404_rjnk_903f028918

02-8918 F-15J 306SQ M27

3番目に帰ってきた#918 これからブレイク

20170404_rjnk_904f028918

#918 おやおやG/A

20170404_rjnk_905f628958

62-8958 F-15J 306SQ M25

その後ブレイクした#958がT/G 

20170404_rjnk_906er

その5分後・・・ 突然サイレンが鳴って一斉に出場

20170404_rjnk_907er

エマーランディングが宣言がされて、配置場所へ急ぎます

20170404_rjnk_908er

そろった、そろったハヤ

20170404_rjnk_909er

どうも、BAK-12使用の模様

20170404_rjnk_910ja328j

JAL186 RJNK-RJTT JA328J B737-846

まずは、民航の出発機を離陸させて・・

20170404_rjnk_911ja77an

ANA753 RJTT-RJNK JA77AN B737-881

到着機を着陸させて・・ これで、トラフィク無し

20170404_rjnk_912er

すかさずケーブルが引き出されます。

20170404_rjnk_913er

ANA機がエプロンに来る頃には、ケーブルセット終了

20170404_rjnk_914agr

その頃白組は、セカンドへの出発準備中。なお、もう一機エマー宣言した模様。

20170404_rjnk_915er

救難隊もレスキュー配備について、いつでも飛び立てる状態に。白組のセカンドはキャンセルされた。

20170404_rjnk_916f628958

#958 T/Gで上がった機がチェイスして、先にランディング

20170404_rjnk_917f028918

#918 エマー当該機がアプローチ フックが降りている

20170404_rjnk_918f028918

02-8918 F-15J 306SQ M27

20170404_rjnk_919f028918

20170404_rjnk_920f028918

いくよ!

20170404_rjnk_921f028918

特に音がする訳でもなく、するする伸びながら減速していきます。

20170404_rjnk_922f028918

この位置で停止。

20170404_rjnk_923er

すかさず消防車が後追い・・

20170404_rjnk_924f028918

先に着陸したチェイス機と・・ 無事良かったな

20170404_rjnk_925f028918

ワイヤーを外しまーす

20170404_rjnk_926er

はい、片付け片付け 次のエマー機が待っている

RJNK 040300Z 31009KT 9999 FEW030 13/02 Q1026

20170404_rjnk_927f028918

エンジンカット タグがお迎えに

20170404_rjnk_928f028918

ドナドナされて行きます。ここまで滑走路閉鎖してから30分。

20170404_rjnk_929t865761

86-5761 T-4 303SQ E57

滑走路閉鎖が解除されて、これがもう一機のエマー機。

20170404_rjnk_930er

再度滑走路チェックに入って、エマー解除

20170404_rjnk_931f028918

滑走路脇配置の消防車がドナドナされるエマー機にそなえています。

20170404_rjnk_932f428833

42-8833 F-15J 303SQ E01

海上で滑走路オープンを待っていた303機が続々帰ってきます。

20170404_rjnk_933ja77an

搭乗抑止をしていた民航機も多少の遅れで出発。

20170404_rjnk_934ja77an

ANA1175 RJNK-RJCC JA77AN B737-881

これにて、エマー劇場終了。何事も無くてよかったです。

さて、この支障の模様をマスコミさんは、どう報道したか・・ WEBを一通り見てみたので、リンクを (いつまで記事が存在するかは???)

映像があったのが、NNN系のテレビ金沢 空港の情報カメラに共生公園で撮った見学者の動画、それにデッキで撮ったと思われる画像。

北陸放送 小松基地F15戦闘機が緊急着陸

石川テレビ 小松基地所属のFー15戦闘機が緊急着陸

テレビ金沢 自衛隊のF15戦闘機 小松基地に緊急着陸

北陸朝日 航空自衛隊小松基地 F15が緊急着陸

朝日新聞 F15が緊急着陸、小松空港一時閉鎖

中日新聞 小松基地に空自F15戦闘機が緊急着陸

産経新聞 警告灯が点滅、空自F15戦闘機が緊急着陸 石川・小松基地

毎日新聞 空自小松基地にF15が緊急着陸 けが人なし/石川

共同通信 空自F15戦闘機が緊急着陸

地元紙の北國新聞では確認できなかった。(地元の方、どうでしょう)

 

| | コメント (0) | トラックバック (0)

2017/04/03

定点 富山空港 2017/4/3 mon

所要で走っていると遠目に手裏剣が飛んでった・・

RJNT 030000Z 21006KT 160V240 9999 FEW030 11/M05 Q1018

20170403_rjnt_00ja51an

やっぱり、イタ

20170403_rjnt_01ja51an

20170403_rjnt_02ja51an

ANA316 RJNT-RJTT JA51AN B737-881

RJNT 030100Z VRB05KT 9999 FEW030 SCT120 BKN/// 13/M06 Q1017

20170403_rjnt_03ja62an

20170403_rjnt_04ja62an

ANA315 RJTT-RJNT JA62AN B737-881

RJNT 030200Z 26012KT 9999 FEW030 BKN110 BKN/// 14/M09 Q1016

20170403_rjnt_05ja6516

JA6516 AS350B3 AKF

20170403_rjnt_06b18661

20170403_rjnt_07b18661

20170403_rjnt_08b18661

CAL170 RCTP-RJNT B-18661 B737-8AL

20170403_rjnt_09ja62an

20170403_rjnt_10ja62an

20170403_rjnt_11ja62an

ANA1181 RJNT-RJCC JA62AN B737-881

RJNT 030300Z 25014KT 9999 FEW030 BKN110 BKN/// 14/M03 Q1015

20170403_rjnt_12b18661

20170403_rjnt_13b18661

20170403_rjnt_14b18661

CAL171 RJNT-RCTP B-18661 B737-8AL

20170403_rjnt_15ja6502

JA6502 AS350B3 AKF

RJNT 030400Z 22017KT 180V240 9999 FEW030 SCT060 BKN100 15/M01 Q1014

この一時間後、雷雲通過でにわかに嵐・・

RJNT 030500Z 24011KT 220V280 9999 -TSRA FEW020 SCT030CB BKN040 12/05 Q1014

| | コメント (0) | トラックバック (0)

2017/04/01

定点 富山空港 2017/4/1 sat

あけましておめでとうございます。(中条きよし) ・・・ 今日は、新年度初日か 

20170401_rjnt_00ja52an

ANA313 RJTT-RJNT JA52AN B737-881

微妙に時刻変更になっていて、来るのが早い

RJNT 010000Z 01011KT 9999 FEW025 SCT045 BKN/// 08/M01 Q1013

20170401_rjnt_01ja52an

20170401_rjnt_02ja52an

ANA316 RJNT-RJTT JA52AN B737-881

RJNT 010100Z 02011KT 9999 SCT030 BKN050 BKN/// 09/M01 Q1014

20170401_rjnt_03arv

久しぶりに賑わいのある表示

20170401_rjnt_04ja55an

まだ、山には雪

20170401_rjnt_05ja55an

20170401_rjnt_06ja55an

赤の行列

20170401_rjnt_07ja55an

20170401_rjnt_08ja55an

ANA315 RJTT-RJNT JA55AN B737-881

20170401_rjnt_09b2296

こちらもサークリング

20170401_rjnt_10b2296

タイトなターンで・・

20170401_rjnt_11b2296

20170401_rjnt_12b2296

CSN613 ZYTL-RJNT B-2296 A319-132

RJNT 010200Z 01014KT 9999 FEW025 BKN030 BKN/// 09/01 Q1013

20170401_rjnt_13ja55an

白木蓮がほころびだしました。

20170401_rjnt_14ja55an

ANA1181 RJNT-RJCC JA55AN B737-881

20170401_rjnt_15b2296

20170401_rjnt_16b2296

CSN614 RJNT-ZYTL B-2296 A319-132

RJNT 010300Z 02012KT 9999 FEW025 BKN030 08/01 Q1013

20170401_rjnt_17b5801

赤いのは、まだ膨らんだ状態

20170401_rjnt_18b5801

20170401_rjnt_19b5801

20170401_rjnt_20b5801

20170401_rjnt_21b5801

CSH825 ZSPD-RJNT B-5801 B737-76D

20170401_rjnt_22sock

神通ヘリパッドに新しい吹流しが付いていた。

20170401_rjnt_23b5801

用途廃止で赤い翼のところにあった赤い消防車は、無くなってしまいしまた。

RJNT 010400Z 01011KT 350V050 9999 SCT025 BKN030 09/01 Q1013

20170401_rjnt_24b5801

20170401_rjnt_25b5801

20170401_rjnt_26b5801

CSH826 RJNT-ZSPD B-5801 B737-76D

RJNT 010500Z 01012KT 340V040 9999 SCT025 BKN030 09/01 Q1013

RJNT 010600Z 02009KT 340V060 9999 SCT025 BKN030 08/00 Q1013

20170401_rjnt_27hl8255

約半年振りです

20170401_rjnt_28hl8255

20170401_rjnt_29hl8255

ASV782 RKSI-RJNT HL8255 A321-231

20170401_rjnt_30ja55an

20170401_rjnt_31ja55an

20170401_rjnt_32ja55an

ANA1182 RJCC-RJNT JA55AN B737-881

20170401_rjnt_33fvc

こんな時間に消防車のお散歩

RJNT 010700Z 02010KT 9999 FEW025 SCT030 BKN050 09/00 Q1013

20170401_rjnt_34ja55an

河原に下りてみて・・・

20170401_rjnt_35ja55an

20170401_rjnt_36ja55an

ANA320 RJNT-RJTT JA55AN B737-881

20170401_rjnt_37b5801

20170401_rjnt_38b5801

20170401_rjnt_39b5801

ASV781 RJNT-RKSI HL8255 A321-231

RJNT 010800Z 03010KT 360V070 9999 FEW025 SCT030 08/00 Q1013

| | コメント (0) | トラックバック (0)

« 2017年3月 | トップページ | 2017年5月 »